Decoded Metar for UCFM ( in ) (IATA:) | Meteo·Mobile Aviation Weather
aviador You're here:

UCFM Decoded Metar

in
Report Time2019-07-21 16:30:00
UTC Time2019-07-21 16:53:40
Flight Rules vfr VFR
Wind220° at 8 kt
Visibility9999 m
Phenomena:N/A
Clouds:Few CB 066 Hf
Expected CloudBase > 7,600 ft AGL from Temp-Dew spread
CeilingNone
Temp29°C
Dew Point10°C (31% RH)
Heat Index27.9°C
AAT26.2°C
QNH1009 hPa
Raw Report
METAR UCFM 211630Z 22004MPS 9999 FEW066CB 29/10 Q1009 R26/0///95
NOSIG=

Extra information for UCFM:More info

Social comments